Terminal Aerodrome Forecast
Issued by NWS Wilmington, OH

Current Version | Previous Version | Graphics & Text | Print | Product List | Glossary On
Versions: 1 2 3 4 5 6 7 8 9 10 11 12 13 14 15 16 17 18 19 20 21 22 23 24 25 26 27 28 29
000
FTUS41 KILN 301732
TAFCMH
TAF
KCMH 301732Z 3018/3118 22006KT P6SM VCSH SCT025 BKN035
     FM302200 24005KT P6SM VCTS BKN035CB
     FM310100 22003KT P6SM VCSH FEW035
     FM310800 00000KT 4SM BR SCT002
      TEMPO 3109/3112 2SM BR
     FM311300 25006KT P6SM SCT035=

USA.gov is the U.S. government's official web portal to all federal, state and local government web resources and services.